Time;durP1;ratioP1;P1;durP2;ratioP2;P2;SDS_P1;SDS_P2;PMS_P1;PMS_P2;Temp;Humidity;BMP_temperature;BMP_pressure;BME280_temperature;BME280_humidity;BME280_pressure;Samples;Min_cycle;Max_cycle;Signal;HPM_P1;HPM_P2
2022/09/23 00:00:47;;;;;;;21.77;12.63;;;;;;;17.05;54.18;99202.22;4922442;29;20067;-69
2022/09/23 00:03:14;;;;;;;18.90;12.35;;;;;;;17.00;54.01;99186.75;4938306;28;20043;-69
2022/09/23 00:05:41;;;;;;;17.80;12.05;;;;;;;17.04;54.24;99200.53;4953680;28;20134;-69
2022/09/23 00:08:09;;;;;;;20.33;12.20;;;;;;;17.20;53.73;99198.25;4954221;28;20085;-70
2022/09/23 00:10:37;;;;;;;22.23;12.25;;;;;;;16.99;53.84;99171.66;4938590;28;20596;-69
2022/09/23 00:13:04;;;;;;;19.85;12.75;;;;;;;17.15;53.73;99200.72;4954933;28;20050;-69
2022/09/23 00:15:30;;;;;;;17.63;11.30;;;;;;;17.03;53.73;99201.59;4938450;29;20055;-69
2022/09/23 00:17:56;;;;;;;19.55;11.23;;;;;;;17.00;53.70;99184.06;4938545;29;20138;-69
2022/09/23 00:20:22;;;;;;;20.88;12.57;;;;;;;17.11;53.54;99209.41;4938938;29;20133;-69
2022/09/23 00:22:48;;;;;;;18.05;12.40;;;;;;;17.12;53.30;99205.69;4938156;28;20137;-69
2022/09/23 00:25:14;;;;;;;18.75;12.50;;;;;;;17.10;53.45;99202.41;4955425;29;20039;-70
2022/09/23 00:27:41;;;;;;;21.73;12.23;;;;;;;17.13;53.23;99202.78;4938553;29;20156;-69
2022/09/23 00:30:08;;;;;;;21.58;13.23;;;;;;;17.31;53.16;99204.81;4922776;28;20126;-69
2022/09/23 00:32:35;;;;;;;19.40;12.82;;;;;;;17.24;53.50;99218.25;4937848;28;20046;-68
2022/09/23 00:35:02;;;;;;;26.30;14.77;;;;;;;17.07;53.67;99200.16;4953892;28;20495;-69
2022/09/23 00:37:30;;;;;;;24.00;14.60;;;;;;;17.13;53.39;99197.41;4953816;28;20145;-68
2022/09/23 00:39:55;;;;;;;24.55;14.07;;;;;;;17.05;53.61;99203.03;4953706;28;20089;-68
2022/09/23 00:42:22;;;;;;;22.98;14.80;;;;;;;17.01;53.47;99183.00;4921769;28;20411;-68
2022/09/23 00:44:57;;;;;;;24.48;15.15;;;;;;;17.15;53.65;99208.78;4954375;28;20186;-69
2022/09/23 00:47:31;;;;;;;23.65;14.98;;;;;;;17.25;53.51;99214.53;4923167;29;20422;-68
2022/09/23 00:50:07;;;;;;;26.27;15.73;;;;;;;17.13;53.34;99200.09;4939069;29;20133;-69
2022/09/23 00:52:34;;;;;;;27.90;15.32;;;;;;;16.98;53.91;99209.41;4938900;29;20047;-68
2022/09/23 00:55:03;;;;;;;24.50;15.52;;;;;;;17.11;53.60;99210.25;4937730;28;20050;-68
2022/09/23 00:57:30;;;;;;;30.20;16.33;;;;;;;16.94;53.66;99206.34;4937628;29;20063;-68
2022/09/23 00:59:56;;;;;;;26.42;15.50;;;;;;;17.03;53.52;99212.31;4937528;28;20108;-68
2022/09/23 01:02:22;;;;;;;25.90;14.85;;;;;;;17.00;53.42;99204.69;4972406;28;20191;-69
2022/09/23 01:04:49;;;;;;;25.02;15.35;;;;;;;17.13;53.59;99207.34;4960109;28;20046;-69
2022/09/23 01:07:16;;;;;;;29.52;14.70;;;;;;;17.05;53.63;99215.63;4976086;28;20108;-69
2022/09/23 01:09:43;;;;;;;26.88;15.05;;;;;;;17.10;53.55;99211.25;4992107;28;20143;-69
2022/09/23 01:12:32;;;;;;;23.17;14.13;;;;;;;17.21;53.09;99205.25;4976279;28;20069;-69
2022/09/23 01:15:09;;;;;;;22.65;13.50;;;;;;;17.22;53.56;99211.44;4975326;28;20042;-69
2022/09/23 01:18:00;;;;;;;29.30;14.70;;;;;;;17.22;53.23;99206.88;4959752;28;20038;-70
2022/09/23 01:20:44;;;;;;;25.08;14.00;;;;;;;17.31;53.10;99205.66;4975689;28;20456;-68
2022/09/23 01:23:25;;;;;;;29.70;14.88;;;;;;;17.25;53.63;99205.66;4991509;28;20097;-68
2022/09/23 01:26:20;;;;;;;33.78;14.70;;;;;;;16.96;54.07;99169.41;4949649;28;20417;-68
2022/09/23 01:29:05;;;;;;;35.83;16.65;;;;;;;17.25;53.93;99209.16;4952737;28;20047;-67
2022/09/23 01:31:42;;;;;;;41.97;18.38;;;;;;;17.07;54.47;99195.59;4952852;28;20138;-67
2022/09/23 01:34:15;;;;;;;40.53;18.77;;;;;;;17.14;54.51;99209.00;4936777;28;20394;-68
2022/09/23 01:36:57;;;;;;;38.63;18.02;;;;;;;17.14;54.25;99206.31;4919754;29;20043;-68
2022/09/23 01:39:48;;;;;;;35.80;16.73;;;;;;;17.11;54.10;99210.25;4952381;28;20046;-68
2022/09/23 01:42:45;;;;;;;41.75;18.23;;;;;;;17.05;54.31;99211.09;4954544;28;20055;-67
2022/09/23 01:45:28;;;;;;;37.00;17.73;;;;;;;17.06;54.37;99214.56;4939210;29;20125;-68
2022/09/23 01:48:00;;;;;;;31.98;16.08;;;;;;;17.06;53.96;99211.88;4952518;28;20134;-68
2022/09/23 01:53:31;;;;;;;26.70;12.90;;;;;;;17.07;53.54;99211.69;4936272;29;20051;-69
2022/09/23 01:56:03;;;;;;;28.20;14.93;;;;;;;16.99;54.03;99209.22;4936142;29;20054;-68
2022/09/23 01:58:42;;;;;;;29.00;14.73;;;;;;;17.02;53.93;99216.03;4936288;29;20094;-68
2022/09/23 02:01:10;;;;;;;25.52;13.75;;;;;;;16.83;53.98;99218.56;4952057;28;20075;-69
2022/09/23 02:03:42;;;;;;;23.95;13.45;;;;;;;16.74;54.00;99182.22;4952497;28;20039;-69
2022/09/23 02:06:40;;;;;;;27.42;14.50;;;;;;;16.68;53.87;99220.59;4937688;28;20121;-69
2022/09/23 02:09:18;;;;;;;30.08;15.43;;;;;;;16.96;53.62;99215.00;4906057;28;20043;-69
2022/09/23 02:11:46;;;;;;;27.20;14.63;;;;;;;16.83;53.74;99215.03;4920935;29;20447;-68
2022/09/23 02:14:21;;;;;;;25.45;14.38;;;;;;;17.03;53.53;99217.69;4952254;28;20500;-69
2022/09/23 02:16:50;;;;;;;25.98;13.50;;;;;;;16.98;53.49;99215.63;4936536;29;20083;-69
2022/09/23 02:19:27;;;;;;;23.35;12.65;;;;;;;16.92;53.31;99188.81;4936734;29;20130;-68
2022/09/23 02:22:07;;;;;;;24.65;12.80;;;;;;;17.08;53.01;99220.56;4953343;28;20051;-68
2022/09/23 02:24:36;;;;;;;22.60;11.65;;;;;;;17.00;53.17;99210.03;4920131;29;20054;-69
2022/09/23 02:27:37;;;;;;;21.55;12.68;;;;;;;17.02;53.11;99214.16;4938610;28;20047;-68
2022/09/23 02:30:19;;;;;;;22.80;12.50;;;;;;;17.08;53.10;99217.88;4941926;28;20126;-68
2022/09/23 02:32:50;;;;;;;17.42;10.98;;;;;;;16.77;53.03;99219.34;4957624;28;20078;-68
2022/09/23 02:35:21;;;;;;;;;;;;;;;17.20;52.20;99225.09;4957365;28;20153;-69
2022/09/23 02:38:05;;;;;;;16.23;10.40;;;;;;;17.16;52.27;99223.03;4941123;29;19963;-68
2022/09/23 02:40:35;;;;;;;21.30;11.57;;;;;;;17.10;52.70;99207.78;4941338;29;20152;-68
2022/09/23 02:43:05;;;;;;;19.60;11.88;;;;;;;17.12;52.75;99211.06;4941326;29;20043;-68
2022/09/23 02:45:32;;;;;;;19.40;11.30;;;;;;;16.83;53.05;99210.50;4958092;28;20051;-69
2022/09/23 02:48:04;;;;;;;19.33;11.32;;;;;;;17.03;53.19;99212.31;4944299;28;20046;-68
2022/09/23 02:50:32;;;;;;;19.73;12.15;;;;;;;16.74;53.36;99184.91;4945476;28;20043;-68
2022/09/23 02:52:59;;;;;;;20.77;11.10;;;;;;;16.95;53.33;99218.72;4961378;28;20109;-68
2022/09/23 02:55:31;;;;;;;20.88;12.35;;;;;;;17.02;53.16;99216.03;4977417;28;20588;-69
2022/09/23 02:58:01;;;;;;;22.25;12.23;;;;;;;17.13;52.86;99210.03;4945788;28;20138;-68
2022/09/23 03:00:45;;;;;;;23.25;12.30;;;;;;;16.98;52.96;99193.31;4977737;28;20066;-68
2022/09/23 03:03:26;;;;;;;22.55;12.45;;;;;;;17.10;52.77;99208.56;4961544;28;20042;-68
2022/09/23 03:05:53;;;;;;;;;;;;;;;17.27;52.58;99217.00;4962090;28;20181;-67
2022/09/23 03:08:31;;;;;;;24.77;13.10;;;;;;;16.84;52.90;99209.47;4961590;28;20368;-68
2022/09/23 03:11:16;;;;;;;23.92;13.05;;;;;;;17.17;53.03;99219.31;4961768;28;20137;-68
2022/09/23 03:14:03;;;;;;;23.23;12.75;;;;;;;17.22;53.19;99224.88;4978861;28;20058;-68
2022/09/23 03:16:32;;;;;;;21.92;12.85;;;;;;;17.19;53.73;99217.25;4962008;28;20133;-68
2022/09/23 03:19:32;;;;;;;23.88;12.90;;;;;;;17.33;52.94;99225.03;5109885;27;20378;-68
2022/09/23 03:22:02;;;;;;;30.02;15.35;;;;;;;17.32;53.12;99219.88;5109311;28;20241;-68
2022/09/23 03:24:30;;;;;;;30.55;15.57;;;;;;;17.23;52.95;99218.47;5074516;28;20044;-68
2022/09/23 03:26:59;;;;;;;26.67;14.02;;;;;;;17.28;52.93;99224.03;5074900;28;20044;-69
2022/09/23 03:29:25;;;;;;;30.48;15.40;;;;;;;17.12;53.22;99216.41;5074976;28;20040;-69
2022/09/23 03:31:51;;;;;;;31.98;16.33;;;;;;;17.27;53.10;99214.31;5057941;28;20055;-69
2022/09/23 03:34:22;;;;;;;28.88;15.30;;;;;;;17.45;52.67;99222.56;5058772;28;20036;-69
2022/09/23 03:36:59;;;;;;;30.75;15.55;;;;;;;17.52;52.34;99208.06;5074428;28;20039;-69
2022/09/23 03:39:47;;;;;;;28.92;15.90;;;;;;;17.60;52.23;99209.69;5091146;28;20052;-68
2022/09/23 03:42:23;;;;;;;30.20;16.08;;;;;;;17.54;52.17;99205.19;5074783;28;20036;-69
2022/09/23 03:44:53;;;;;;;29.20;15.95;;;;;;;17.48;52.51;99206.84;5073789;28;20184;-68
2022/09/23 03:47:20;;;;;;;31.30;15.02;;;;;;;17.29;52.46;99175.50;5107899;28;20051;-70
2022/09/23 03:49:48;;;;;;;28.98;14.85;;;;;;;17.44;52.19;99196.72;5090892;28;20039;-69
2022/09/23 03:52:18;;;;;;;26.33;13.88;;;;;;;17.43;52.07;99203.94;5074486;28;20045;-72
2022/09/23 03:54:43;;;;;;;21.07;12.67;;;;;;;17.22;52.04;99201.53;5076842;28;20043;-71
2022/09/23 03:57:10;;;;;;;20.88;12.55;;;;;;;17.26;52.31;99208.13;5060082;28;20054;-69
2022/09/23 03:59:36;;;;;;;18.58;12.13;;;;;;;17.12;52.21;99178.84;5128308;28;20055;-71
2022/09/23 04:02:03;;;;;;;22.00;13.13;;;;;;;17.20;52.25;99187.50;5094161;28;20484;-69
2022/09/23 04:04:32;;;;;;;24.38;13.30;;;;;;;17.19;52.44;99198.47;5093624;28;20039;-69
2022/09/23 04:06:59;;;;;;;28.20;15.82;;;;;;;17.20;52.45;99198.25;5111192;28;20423;-69
2022/09/23 04:09:25;;;;;;;31.60;16.85;;;;;;;17.22;52.41;99198.03;5093962;28;20104;-69
2022/09/23 04:11:51;;;;;;;28.58;16.38;;;;;;;17.21;52.88;99193.69;5076817;28;20101;-67
2022/09/23 04:14:18;;;;;;;29.00;15.90;;;;;;;17.28;52.63;99189.13;5093228;28;20062;-67
2022/09/23 04:16:45;;;;;;;29.17;17.25;;;;;;;17.06;52.66;99163.59;5075890;28;20103;-67
2022/09/23 04:19:11;;;;;;;27.55;16.95;;;;;;;17.13;52.75;99189.38;5110017;28;20051;-69
2022/09/23 04:21:38;;;;;;;26.52;16.20;;;;;;;17.19;52.72;99172.44;5109978;28;20046;-70
2022/09/23 04:24:04;;;;;;;33.17;16.95;;;;;;;17.11;52.70;99171.84;5109975;28;20454;-72
2022/09/23 04:26:30;;;;;;;27.92;16.00;;;;;;;17.19;52.95;99164.38;5109759;28;20053;-71
2022/09/23 04:28:57;;;;;;;25.05;14.75;;;;;;;16.93;52.73;99142.19;5072563;28;20064;-71
2022/09/23 04:31:25;;;;;;;25.85;13.95;;;;;;;17.03;52.57;99161.34;5114263;28;20122;-72
2022/09/23 04:33:54;;;;;;;21.10;13.13;;;;;;;17.31;52.06;99173.44;5096639;28;20074;-72
2022/09/23 04:36:20;;;;;;;22.58;12.07;;;;;;;17.09;52.01;99166.69;5096023;28;20424;-73
2022/09/23 04:38:47;;;;;;;26.67;12.18;;;;;;;17.31;51.68;99160.03;5096044;28;20051;-74
2022/09/23 04:41:13;;;;;;;19.75;10.90;;;;;;;17.26;51.31;99164.34;5114743;28;20039;-73
2022/09/23 04:43:41;;;;;;;17.52;10.40;;;;;;;17.31;51.75;99159.19;5114663;28;20051;-73
2022/09/23 04:46:10;;;;;;;18.05;10.25;;;;;;;17.43;50.93;99154.78;5063582;28;20050;-72
2022/09/23 04:48:44;;;;;;;19.55;10.20;;;;;;;17.19;50.44;99099.16;5080865;28;20081;-69
2022/09/23 04:51:15;;;;;;;19.73;9.07;;;;;;;17.41;50.45;99152.31;5097431;28;20641;-72
2022/09/23 04:53:42;;;;;;;14.77;8.90;;;;;;;17.58;50.11;99176.84;5115124;28;20039;-72
2022/09/23 04:56:10;;;;;;;16.40;9.18;;;;;;;17.54;50.12;99162.22;5097847;28;20051;-73
2022/09/23 04:58:37;;;;;;;16.80;8.93;;;;;;;17.65;49.68;99191.09;5063040;28;20446;-72
2022/09/23 05:01:19;;;;;;;16.35;9.15;;;;;;;17.90;49.43;99195.50;5080083;28;20144;-73
2022/09/23 05:03:45;;;;;;;17.02;9.00;;;;;;;17.83;49.62;99194.72;5097568;28;20055;-73
2022/09/23 05:06:13;;;;;;;16.00;8.77;;;;;;;17.85;49.56;99175.69;5096339;28;20103;-72
2022/09/23 05:08:47;;;;;;;14.02;8.05;;;;;;;17.90;49.30;99170.47;5069884;28;20043;-72
2022/09/23 05:11:14;;;;;;;13.98;7.82;;;;;;;17.88;48.98;99186.00;5082837;28;20108;-71
2022/09/23 05:13:40;;;;;;;12.23;7.75;;;;;;;17.97;48.84;99180.16;5072894;28;20048;-71
2022/09/23 05:16:07;;;;;;;14.95;7.63;;;;;;;18.30;48.35;99190.66;5101925;28;20569;-69
2022/09/23 05:18:34;;;;;;;12.80;7.40;;;;;;;18.30;48.36;99191.50;5070228;28;20494;-71
2022/09/23 05:21:01;;;;;;;13.63;7.53;;;;;;;18.31;47.94;99182.38;5070464;28;20079;-72
2022/09/23 05:23:27;;;;;;;10.38;6.93;;;;;;;18.37;48.14;99186.09;5082560;28;20108;-71
2022/09/23 05:26:01;;;;;;;10.93;7.22;;;;;;;18.61;47.57;99187.97;5069942;28;20083;-70
2022/09/23 05:28:34;;;;;;;9.70;6.55;;;;;;;18.41;47.76;99171.19;5052289;28;20070;-71
2022/09/23 05:31:05;;;;;;;13.85;6.85;;;;;;;18.63;47.65;99191.28;5057060;28;20051;-73
2022/09/23 05:33:34;;;;;;;12.15;7.13;;;;;;;18.54;47.51;99189.09;5076510;28;20051;-71
2022/09/23 05:36:01;;;;;;;13.85;7.13;;;;;;;18.44;47.35;99186.88;5051128;28;20140;-71
2022/09/23 05:38:28;;;;;;;15.07;7.60;;;;;;;18.59;47.36;99190.06;5075119;28;20072;-71
2022/09/23 05:41:05;;;;;;;11.73;6.50;;;;;;;18.59;47.36;99194.63;5067007;28;20082;-71
2022/09/23 05:43:31;;;;;;;11.05;6.90;;;;;;;18.53;46.94;99184.75;5075660;28;20048;-73
2022/09/23 05:46:04;;;;;;;11.20;6.80;;;;;;;18.76;46.90;99185.75;5072578;28;20374;-72
2022/09/23 05:48:31;;;;;;;12.32;7.00;;;;;;;18.67;46.78;99189.78;5073904;28;20123;-72
2022/09/23 05:50:57;;;;;;;10.77;7.05;;;;;;;18.67;46.25;99188.94;5075432;28;20110;-71
2022/09/23 05:53:22;;;;;;;10.40;6.07;;;;;;;18.61;46.25;99171.84;5028917;28;20592;-71
2022/09/23 05:55:48;;;;;;;7.97;5.63;;;;;;;18.86;45.89;99187.97;5069849;28;20044;-73
2022/09/23 05:58:14;;;;;;;8.98;5.82;;;;;;;19.10;45.28;99181.69;5048052;28;20044;-71
2022/09/23 06:00:41;;;;;;;13.95;6.60;;;;;;;19.53;44.45;99187.84;5051504;28;20091;-72
2022/09/23 06:03:14;;;;;;;13.27;6.22;;;;;;;19.87;43.55;99165.66;5077156;28;20043;-73
2022/09/23 06:05:39;;;;;;;8.25;6.10;;;;;;;20.04;43.20;99188.22;5080531;28;20047;-71
2022/09/23 06:08:06;;;;;;;11.68;6.82;;;;;;;20.43;42.27;99173.34;5046215;28;20052;-71
2022/09/23 06:10:40;;;;;;;10.27;6.22;;;;;;;20.98;41.48;99197.13;5083639;28;20040;-72
2022/09/23 06:13:07;;;;;;;10.15;6.32;;;;;;;20.92;41.25;99189.94;5089138;28;20056;-73
2022/09/23 06:15:33;;;;;;;13.25;6.35;;;;;;;21.16;40.52;99190.75;5072834;28;20037;-73
2022/09/23 06:17:59;;;;;;;9.93;6.72;;;;;;;21.31;40.13;99188.41;5056323;28;20138;-70
2022/09/23 06:20:25;;;;;;;11.98;7.35;;;;;;;21.33;40.26;99192.50;5053371;28;20532;-69
2022/09/23 06:22:52;;;;;;;15.70;7.60;;;;;;;21.28;40.57;99188.88;5054389;28;20382;-73
2022/09/23 06:25:18;;;;;;;24.10;7.82;;;;;;;21.18;40.31;99196.75;5054568;28;20501;-72
2022/09/23 06:27:53;;;;;;;11.90;7.13;;;;;;;21.43;39.76;99211.59;5021085;28;20493;-71
2022/09/23 06:30:20;;;;;;;12.45;7.32;;;;;;;21.23;40.18;99215.78;5069988;28;20090;-71
2022/09/23 06:32:52;;;;;;;9.13;6.47;;;;;;;21.12;40.25;99192.28;5053795;28;20121;-72
2022/09/23 06:35:24;;;;;;;12.63;6.50;;;;;;;21.00;40.52;99221.19;5070555;28;20071;-72
2022/09/23 06:37:50;;;;;;;10.80;5.82;;;;;;;20.60;41.47;99221.00;5054038;28;20055;-74
2022/09/23 06:40:16;;;;;;;10.38;5.50;;;;;;;20.44;41.91;99213.56;5054371;28;20048;-74
2022/09/23 06:42:42;;;;;;;8.32;5.88;;;;;;;20.42;42.01;99195.97;5037719;28;20105;-73
2022/09/23 06:45:11;;;;;;;10.73;5.40;;;;;;;20.52;41.73;99191.66;5037204;28;20047;-71
2022/09/23 06:47:38;;;;;;;7.95;5.10;;;;;;;20.53;41.86;99195.16;5071157;28;20048;-70
2022/09/23 06:50:05;;;;;;;7.75;4.63;;;;;;;20.56;42.14;99190.13;5054858;28;20041;-69
2022/09/23 06:52:31;;;;;;;6.40;4.80;;;;;;;20.54;41.30;99194.94;5037271;28;20044;-70
2022/09/23 06:54:56;;;;;;;6.25;4.38;;;;;;;20.63;41.23;99190.03;5020784;28;20367;-68
2022/09/23 06:57:23;;;;;;;12.82;4.53;;;;;;;20.83;40.49;99191.34;5020518;28;20041;-69
2022/09/23 06:59:49;;;;;;;6.28;4.07;;;;;;;21.16;39.79;99191.56;5086501;28;20036;-71
2022/09/23 07:02:15;;;;;;;6.60;4.28;;;;;;;21.45;39.46;99206.78;5036325;28;20486;-72
2022/09/23 07:04:42;;;;;;;8.52;4.20;;;;;;;21.77;38.87;99193.72;5053824;28;20482;-72
2022/09/23 07:07:10;;;;;;;4.93;3.97;;;;;;;22.29;37.60;99191.69;5036879;28;20105;-73
2022/09/23 07:09:37;;;;;;;6.25;3.97;;;;;;;22.35;37.26;99175.31;5069809;28;20040;-72
2022/09/23 07:12:03;;;;;;;9.02;4.22;;;;;;;22.56;36.93;99195.44;5052549;28;20040;-74
2022/09/23 07:14:29;;;;;;;7.60;3.72;;;;;;;22.50;37.43;99188.25;5053131;28;20190;-72
2022/09/23 07:16:54;;;;;;;4.20;3.70;;;;;;;22.35;37.11;99191.56;5053726;28;20076;-70
2022/09/23 07:19:20;;;;;;;7.30;3.40;;;;;;;22.37;36.77;99181.28;5049842;28;20074;-75
2022/09/23 07:21:46;;;;;;;6.45;3.72;;;;;;;22.57;36.42;99186.25;5016823;28;20048;-74
2022/09/23 07:24:11;;;;;;;5.57;3.83;;;;;;;23.76;34.44;99177.38;5016679;28;20044;-72
2022/09/23 07:26:39;;;;;;;6.03;3.78;;;;;;;26.15;30.77;99179.41;5016678;28;20047;-71
2022/09/23 07:29:05;;;;;;;6.88;3.63;;;;;;;28.08;27.60;99150.38;5035687;28;20051;-75
2022/09/23 07:31:32;;;;;;;5.40;2.97;;;;;;;29.95;24.60;99156.47;5000116;28;20036;-73
2022/09/23 07:34:00;;;;;;;5.25;3.28;;;;;;;31.67;22.49;99130.44;5050160;28;20048;-74
2022/09/23 07:36:27;;;;;;;3.60;2.33;;;;;;;32.07;21.55;99143.28;5049703;28;20045;-73
2022/09/23 07:38:59;;;;;;;5.90;2.55;;;;;;;32.90;19.31;99132.47;5049467;28;20048;-73
2022/09/23 07:41:27;;;;;;;7.35;2.92;;;;;;;32.08;20.23;99142.16;5036007;28;21064;-71
2022/09/23 07:43:57;;;;;;;3.97;2.70;;;;;;;30.56;21.79;99134.44;5031668;28;20040;-72
2022/09/23 07:46:29;;;;;;;3.83;3.15;;;;;;;28.86;23.99;99124.63;5034631;28;20434;-72
2022/09/23 07:48:55;;;;;;;4.25;3.40;;;;;;;27.31;25.80;99122.91;5067711;28;20041;-72
2022/09/23 07:51:31;;;;;;;5.70;3.45;;;;;;;26.41;27.21;99124.69;5051740;28;20052;-76
2022/09/23 07:53:58;;;;;;;5.80;3.83;;;;;;;25.37;28.67;99120.63;5037715;28;20086;-73
2022/09/23 07:56:26;;;;;;;4.72;3.90;;;;;;;24.80;29.68;99119.78;5051651;28;20041;-72
2022/09/23 07:59:04;;;;;;;5.70;3.90;;;;;;;24.28;30.53;99119.63;5070018;28;20045;-73
2022/09/23 08:01:33;;;;;;;6.25;3.80;;;;;;;24.07;31.36;99112.38;5070903;28;20044;-74
2022/09/23 08:04:09;;;;;;;6.75;4.35;;;;;;;24.04;31.73;99131.91;5070225;28;20051;-72
2022/09/23 08:06:36;;;;;;;8.80;4.20;;;;;;;23.83;32.00;99127.31;5055912;28;20036;-72
2022/09/23 08:09:02;;;;;;;6.13;4.07;;;;;;;24.06;31.52;99128.91;5056810;28;20048;-72
2022/09/23 08:11:29;;;;;;;7.55;3.65;;;;;;;24.12;31.52;99120.56;5021997;28;20045;-72
2022/09/23 08:13:56;;;;;;;5.25;3.40;;;;;;;24.14;30.92;99131.19;5072113;28;20111;-72
2022/09/23 08:16:21;;;;;;;4.18;3.70;;;;;;;24.10;31.16;99124.59;5020397;28;20044;-72
2022/09/23 08:18:48;;;;;;;4.50;3.50;;;;;;;23.91;31.64;99129.53;5045253;28;20079;-71
2022/09/23 08:21:21;;;;;;;6.70;4.22;;;;;;;23.75;31.91;99127.75;5035603;28;20098;-70
2022/09/23 08:23:47;;;;;;;4.72;3.80;;;;;;;23.07;32.91;99117.44;5073666;28;20125;-71
2022/09/23 08:26:13;;;;;;;8.10;4.22;;;;;;;22.67;34.43;99107.91;5041342;28;20055;-71
2022/09/23 08:28:39;;;;;;;8.25;4.15;;;;;;;22.23;34.92;99115.06;5056220;28;20044;-71
2022/09/23 08:31:07;;;;;;;6.95;3.83;;;;;;;21.76;35.28;99116.34;5038322;28;20131;-72
2022/09/23 08:33:32;;;;;;;6.07;4.07;;;;;;;21.39;35.86;99118.59;5042695;28;20044;-76
2022/09/23 08:36:00;;;;;;;6.63;4.50;;;;;;;21.22;36.73;99115.00;5025243;28;20426;-74
2022/09/23 08:38:26;;;;;;;10.13;4.13;;;;;;;20.89;37.30;99113.97;5075415;28;20117;-76
2022/09/23 08:41:00;;;;;;;7.60;4.22;;;;;;;20.98;37.25;99112.59;5060224;28;20123;-75
2022/09/23 08:43:28;;;;;;;9.52;4.15;;;;;;;20.87;38.07;99116.09;5057547;28;20052;-74
2022/09/23 08:45:55;;;;;;;8.00;4.10;;;;;;;20.75;37.43;99107.19;5058679;28;20446;-75
2022/09/23 08:48:28;;;;;;;9.55;4.18;;;;;;;20.94;37.41;99125.69;5024595;28;20064;-73
2022/09/23 08:51:00;;;;;;;10.32;4.70;;;;;;;20.90;37.71;99126.41;5074012;28;20421;-75
2022/09/23 08:53:29;;;;;;;11.02;5.05;;;;;;;20.86;37.68;99136.03;5040845;28;20470;-74
2022/09/23 08:56:02;;;;;;;7.55;4.20;;;;;;;20.40;37.35;99065.91;5040085;28;20058;-76
2022/09/23 08:58:37;;;;;;;7.28;4.40;;;;;;;20.82;37.19;99122.19;5055733;28;20055;-74
2022/09/23 09:01:23;;;;;;;10.27;4.75;;;;;;;21.07;36.72;99146.25;5055949;28;20044;-75
2022/09/23 09:03:59;;;;;;;8.80;4.43;;;;;;;20.86;37.33;99114.44;5055526;28;20055;-75
2022/09/23 09:06:53;;;;;;;7.63;4.43;;;;;;;21.13;36.70;99142.59;5072149;28;20044;-76
2022/09/23 09:09:27;;;;;;;9.13;4.35;;;;;;;21.17;36.08;99133.00;5015810;28;20053;-75
2022/09/23 09:12:15;;;;;;;6.72;3.40;;;;;;;21.31;35.83;99128.97;5053856;28;20137;-75
2022/09/23 09:14:42;;;;;;;13.88;4.20;;;;;;;21.25;35.76;99132.63;5055146;28;20044;-75
2022/09/23 09:17:35;;;;;;;6.95;3.30;;;;;;;21.82;34.68;99120.00;5072198;28;20433;-75
2022/09/23 09:20:26;;;;;;;7.15;3.63;;;;;;;22.48;34.36;99112.72;5055398;28;20064;-75
2022/09/23 09:22:58;;;;;;;8.25;3.13;;;;;;;23.70;31.97;99106.00;5055522;28;20037;-73
2022/09/23 09:25:46;;;;;;;6.22;3.60;;;;;;;24.68;29.97;99100.94;5071733;28;20037;-74
2022/09/23 09:28:23;;;;;;;11.40;3.33;;;;;;;24.94;29.43;99092.97;5055233;28;20113;-73
2022/09/23 09:30:55;;;;;;;12.90;4.35;;;;;;;24.94;29.85;99095.69;5055505;28;20051;-73
2022/09/23 09:33:27;;;;;;;7.00;4.03;;;;;;;24.62;30.44;99101.13;5052686;28;20044;-74
2022/09/23 09:35:58;;;;;;;6.07;4.25;;;;;;;24.24;31.60;99095.97;5036296;28;20135;-72
2022/09/23 09:38:25;;;;;;;;;;;;;;;23.89;32.32;99111.91;5053225;28;20461;-73
2022/09/23 09:40:50;;;;;;;9.45;4.70;;;;;;;23.23;33.39;99107.63;5019709;28;19931;-74
2022/09/23 09:43:24;;;;;;;8.68;4.28;;;;;;;23.02;33.88;99094.84;5019414;28;20048;-73
2022/09/23 09:46:03;;;;;;;10.35;3.88;;;;;;;22.70;34.31;99096.56;5054586;28;20411;-71
2022/09/23 09:48:38;;;;;;;11.23;3.53;;;;;;;22.70;34.25;99105.53;5072034;28;20451;-71
2022/09/23 09:51:17;;;;;;;6.57;3.80;;;;;;;22.45;34.35;99098.91;5055839;28;20127;-72
2022/09/23 09:53:43;;;;;;;6.18;3.88;;;;;;;22.02;35.50;99104.13;5039005;28;20478;-72
2022/09/23 09:56:12;;;;;;;6.10;3.70;;;;;;;22.05;35.34;99109.06;5021993;28;20062;-71
2022/09/23 09:58:50;;;;;;;7.18;3.83;;;;;;;22.04;35.08;99110.94;5037777;28;20138;-72
2022/09/23 10:01:22;;;;;;;6.97;3.70;;;;;;;22.00;35.09;99107.06;5041662;28;20044;-73
2022/09/23 10:03:49;;;;;;;6.50;3.70;;;;;;;22.13;34.54;99105.91;5075436;28;20131;-74
2022/09/23 10:06:19;;;;;;;9.88;3.53;;;;;;;22.64;34.48;99108.41;5073208;28;20477;-74
2022/09/23 10:09:10;;;;;;;7.18;3.25;;;;;;;23.59;32.52;99106.97;5054902;28;20048;-77
2022/09/23 10:11:36;;;;;;;;;;;;;;;24.21;31.02;99105.47;5052333;28;20405;-75
2022/09/23 10:14:11;;;;;;;6.20;3.30;;;;;;;24.59;30.28;99096.22;5039702;28;19916;-73
2022/09/23 10:16:39;;;;;;;7.00;3.58;;;;;;;27.19;26.94;99106.03;5088033;28;20059;-75
2022/09/23 10:19:24;;;;;;;5.10;3.20;;;;;;;29.05;24.17;99103.69;5073280;28;20121;-75
2022/09/23 10:21:58;;;;;;;5.97;2.63;;;;;;;30.60;22.25;99097.91;5048058;28;20055;-74
2022/09/23 10:24:37;;;;;;;6.95;3.15;;;;;;;30.66;22.00;99104.13;5085681;28;20085;-73
2022/09/23 10:27:10;;;;;;;8.57;3.47;;;;;;;29.84;22.28;99089.28;5070644;28;20146;-74
2022/09/23 10:29:41;;;;;;;6.68;3.05;;;;;;;28.91;23.51;99102.69;5062700;28;20040;-73
2022/09/23 10:32:29;;;;;;;6.68;2.80;;;;;;;28.19;24.23;99091.88;5057074;28;20055;-74
2022/09/23 10:34:56;;;;;;;5.30;2.92;;;;;;;27.62;25.00;99078.03;5088832;28;20036;-74
2022/09/23 10:37:33;;;;;;;5.75;2.60;;;;;;;27.61;24.47;99079.97;5089510;28;20054;-74
2022/09/23 10:49:01;;;;;;;6.63;3.03;;;;;;;27.27;25.18;99059.13;5071619;28;20394;-73
2022/09/23 10:51:37;;;;;;;5.18;2.50;;;;;;;26.72;25.10;99054.69;5046988;28;20044;-74
2022/09/23 10:54:12;;;;;;;7.85;3.03;;;;;;;26.40;25.43;99054.97;5073719;28;20044;-73
2022/09/23 10:56:42;;;;;;;4.80;2.30;;;;;;;25.84;25.74;99050.59;5070305;28;20055;-70
2022/09/23 10:59:26;;;;;;;5.53;2.85;;;;;;;25.55;26.15;99052.19;5089630;28;20050;-74
2022/09/23 11:02:16;;;;;;;4.30;2.63;;;;;;;25.31;26.53;99050.19;5054886;28;20040;-74
2022/09/23 11:05:03;;;;;;;3.95;2.55;;;;;;;25.02;27.00;99036.19;5070571;28;20063;-72
2022/09/23 11:07:52;;;;;;;7.05;2.50;;;;;;;24.81;27.02;99035.31;5073669;28;20048;-72
2022/09/23 11:10:43;;;;;;;7.53;2.45;;;;;;;24.71;26.97;99026.25;5010902;28;20048;-75
2022/09/23 11:13:26;;;;;;;4.18;2.25;;;;;;;24.66;27.14;99032.50;5087320;28;20142;-75
2022/09/23 11:16:09;;;;;;;4.68;2.70;;;;;;;24.37;27.55;99023.06;5071635;28;20097;-75
2022/09/23 11:18:52;;;;;;;9.00;2.70;;;;;;;24.10;27.62;99037.78;5086260;28;20067;-73
2022/09/23 11:21:39;;;;;;;8.02;2.92;;;;;;;23.88;28.42;99032.41;5054631;28;20054;-73
2022/09/23 11:24:50;;;;;;;6.40;3.10;;;;;;;23.66;28.41;99033.56;5087490;28;20043;-75
2022/09/23 11:27:27;;;;;;;4.10;3.00;;;;;;;23.22;29.15;99016.53;5061170;28;20573;-74
2022/09/23 11:30:10;;;;;;;7.00;2.88;;;;;;;23.42;29.15;99029.53;5082268;28;20080;-75
2022/09/23 11:32:55;;;;;;;3.97;3.10;;;;;;;23.29;29.32;99000.94;5091821;28;20390;-74
2022/09/23 11:36:16;;;;;;;10.95;3.65;;;;;;;23.49;29.43;99008.47;5057108;28;20055;-74
2022/09/23 11:38:45;;;;;;;10.70;3.75;;;;;;;23.49;29.21;98997.63;5041830;28;20056;-75
2022/09/23 11:41:20;;;;;;;5.90;3.78;;;;;;;23.50;29.51;98997.34;5039330;28;20043;-73
2022/09/23 11:43:51;;;;;;;5.82;3.90;;;;;;;23.50;29.67;99004.66;5075188;28;20056;-73
2022/09/23 11:46:27;;;;;;;;;;;;;;;23.86;28.61;99014.78;5075424;28;20044;-73
2022/09/23 11:49:04;;;;;;;6.78;3.53;;;;;;;24.06;28.30;99028.53;5040954;28;19916;-74
2022/09/23 11:51:46;;;;;;;6.97;3.70;;;;;;;24.38;28.00;99030.13;5055444;28;20489;-74
2022/09/23 11:54:21;;;;;;;3.92;3.35;;;;;;;24.47;27.62;99035.88;5066416;28;20071;-76
2022/09/23 11:56:53;;;;;;;12.98;4.82;;;;;;;24.51;29.79;99020.69;5081485;28;20048;-72
2022/09/23 11:59:33;;;;;;;7.35;4.53;;;;;;;24.81;29.66;99026.34;5059555;28;20044;-75
2022/09/23 12:02:03;;;;;;;4.72;3.58;;;;;;;24.74;29.06;99028.44;5061231;28;20113;-73